sensor_id;sensor_type;location;lat;lon;timestamp;temperature;humidity
70826;SHT31;58446;41.490;22.098;2022-07-23T00:00:00;28.68;42.11
70826;SHT31;58446;41.490;22.098;2022-07-23T00:02:26;28.31;42.63
70826;SHT31;58446;41.490;22.098;2022-07-23T00:04:51;28.31;43.03
70826;SHT31;58446;41.490;22.098;2022-07-23T00:07:17;27.94;44.23
70826;SHT31;58446;41.490;22.098;2022-07-23T00:09:43;28.27;42.93
70826;SHT31;58446;41.490;22.098;2022-07-23T00:12:09;28.05;43.60
70826;SHT31;58446;41.490;22.098;2022-07-23T00:14:34;28.14;43.37
70826;SHT31;58446;41.490;22.098;2022-07-23T00:17:00;28.19;42.98
70826;SHT31;58446;41.490;22.098;2022-07-23T00:19:26;28.04;43.25
70826;SHT31;58446;41.490;22.098;2022-07-23T00:21:51;28.28;42.73
70826;SHT31;58446;41.490;22.098;2022-07-23T00:24:17;28.27;42.52
70826;SHT31;58446;41.490;22.098;2022-07-23T00:26:43;28.46;42.17
70826;SHT31;58446;41.490;22.098;2022-07-23T00:29:08;28.19;42.86
70826;SHT31;58446;41.490;22.098;2022-07-23T00:31:34;28.24;42.56
70826;SHT31;58446;41.490;22.098;2022-07-23T00:34:00;28.55;42.03
70826;SHT31;58446;41.490;22.098;2022-07-23T00:36:27;28.48;42.17
70826;SHT31;58446;41.490;22.098;2022-07-23T00:38:53;28.51;42.31
70826;SHT31;58446;41.490;22.098;2022-07-23T00:41:19;28.11;43.80
70826;SHT31;58446;41.490;22.098;2022-07-23T00:43:45;27.77;44.20
70826;SHT31;58446;41.490;22.098;2022-07-23T00:46:10;27.88;44.13
70826;SHT31;58446;41.490;22.098;2022-07-23T00:48:36;28.05;43.28
70826;SHT31;58446;41.490;22.098;2022-07-23T00:51:02;28.19;42.83
70826;SHT31;58446;41.490;22.098;2022-07-23T00:53:28;28.34;42.39
70826;SHT31;58446;41.490;22.098;2022-07-23T00:55:54;28.32;42.26
70826;SHT31;58446;41.490;22.098;2022-07-23T00:58:20;28.29;42.42
70826;SHT31;58446;41.490;22.098;2022-07-23T01:00:46;28.35;42.34
70826;SHT31;58446;41.490;22.098;2022-07-23T01:03:11;28.18;42.82
70826;SHT31;58446;41.490;22.098;2022-07-23T01:05:37;28.07;43.08
70826;SHT31;58446;41.490;22.098;2022-07-23T01:08:05;27.88;43.89
70826;SHT31;58446;41.490;22.098;2022-07-23T01:10:31;27.96;43.35
70826;SHT31;58446;41.490;22.098;2022-07-23T01:13:05;28.01;43.28
70826;SHT31;58446;41.490;22.098;2022-07-23T01:15:32;28.02;43.34
70826;SHT31;58446;41.490;22.098;2022-07-23T01:17:59;27.90;43.35
70826;SHT31;58446;41.490;22.098;2022-07-23T01:20:25;27.74;43.45
70826;SHT31;58446;41.490;22.098;2022-07-23T01:22:51;27.63;43.69
70826;SHT31;58446;41.490;22.098;2022-07-23T01:25:18;27.63;43.60
70826;SHT31;58446;41.490;22.098;2022-07-23T01:27:43;27.60;43.61
70826;SHT31;58446;41.490;22.098;2022-07-23T01:30:10;27.47;43.74
70826;SHT31;58446;41.490;22.098;2022-07-23T01:32:37;27.59;43.55
70826;SHT31;58446;41.490;22.098;2022-07-23T01:35:03;27.20;44.23
70826;SHT31;58446;41.490;22.098;2022-07-23T01:37:30;27.29;44.03
70826;SHT31;58446;41.490;22.098;2022-07-23T01:39:55;27.33;43.91
70826;SHT31;58446;41.490;22.098;2022-07-23T01:42:21;27.40;43.86
70826;SHT31;58446;41.490;22.098;2022-07-23T01:44:47;27.42;43.77
70826;SHT31;58446;41.490;22.098;2022-07-23T01:47:13;27.32;43.93
70826;SHT31;58446;41.490;22.098;2022-07-23T01:49:38;27.26;44.14
70826;SHT31;58446;41.490;22.098;2022-07-23T01:52:04;27.02;44.52
70826;SHT31;58446;41.490;22.098;2022-07-23T01:54:34;26.77;45.30
70826;SHT31;58446;41.490;22.098;2022-07-23T01:57:00;26.85;45.12
70826;SHT31;58446;41.490;22.098;2022-07-23T01:59:27;26.82;45.05
70826;SHT31;58446;41.490;22.098;2022-07-23T02:01:53;26.71;45.26
70826;SHT31;58446;41.490;22.098;2022-07-23T02:04:20;26.87;44.89
70826;SHT31;58446;41.490;22.098;2022-07-23T02:06:46;26.84;44.99
70826;SHT31;58446;41.490;22.098;2022-07-23T02:09:12;26.95;44.76
70826;SHT31;58446;41.490;22.098;2022-07-23T02:11:38;27.05;44.60
70826;SHT31;58446;41.490;22.098;2022-07-23T02:14:04;27.13;44.63
70826;SHT31;58446;41.490;22.098;2022-07-23T02:16:29;26.67;45.82
70826;SHT31;58446;41.490;22.098;2022-07-23T02:18:55;26.58;46.13
70826;SHT31;58446;41.490;22.098;2022-07-23T02:21:21;26.58;46.03
70826;SHT31;58446;41.490;22.098;2022-07-23T02:23:47;26.36;46.79
70826;SHT31;58446;41.490;22.098;2022-07-23T02:26:13;26.48;46.29
70826;SHT31;58446;41.490;22.098;2022-07-23T02:28:38;26.38;46.60
70826;SHT31;58446;41.490;22.098;2022-07-23T02:31:04;26.16;47.52
70826;SHT31;58446;41.490;22.098;2022-07-23T02:33:32;26.49;46.29
70826;SHT31;58446;41.490;22.098;2022-07-23T02:35:58;26.55;46.42
70826;SHT31;58446;41.490;22.098;2022-07-23T02:38:24;26.47;46.66
70826;SHT31;58446;41.490;22.098;2022-07-23T02:40:50;26.65;45.75
70826;SHT31;58446;41.490;22.098;2022-07-23T02:43:16;26.84;45.49
70826;SHT31;58446;41.490;22.098;2022-07-23T02:45:42;26.69;45.69
70826;SHT31;58446;41.490;22.098;2022-07-23T02:48:08;26.74;45.70
70826;SHT31;58446;41.490;22.098;2022-07-23T02:50:33;26.69;46.06
70826;SHT31;58446;41.490;22.098;2022-07-23T02:52:59;26.84;45.65
70826;SHT31;58446;41.490;22.098;2022-07-23T02:55:25;26.85;45.77
70826;SHT31;58446;41.490;22.098;2022-07-23T02:57:51;26.75;45.69
70826;SHT31;58446;41.490;22.098;2022-07-23T03:00:16;26.68;45.97
70826;SHT31;58446;41.490;22.098;2022-07-23T03:02:42;26.40;46.53
70826;SHT31;58446;41.490;22.098;2022-07-23T03:05:08;26.36;46.54
70826;SHT31;58446;41.490;22.098;2022-07-23T03:07:34;26.44;46.40
70826;SHT31;58446;41.490;22.098;2022-07-23T03:09:59;26.36;46.64
70826;SHT31;58446;41.490;22.098;2022-07-23T03:12:25;26.01;47.78
70826;SHT31;58446;41.490;22.098;2022-07-23T03:14:51;26.24;46.81
70826;SHT31;58446;41.490;22.098;2022-07-23T03:17:17;26.20;47.13
70826;SHT31;58446;41.490;22.098;2022-07-23T03:19:42;26.13;47.09
70826;SHT31;58446;41.490;22.098;2022-07-23T03:22:08;26.16;46.96
70826;SHT31;58446;41.490;22.098;2022-07-23T03:24:34;26.12;47.08
70826;SHT31;58446;41.490;22.098;2022-07-23T03:27:21;26.23;46.93
70826;SHT31;58446;41.490;22.098;2022-07-23T03:29:52;26.24;46.75
70826;SHT31;58446;41.490;22.098;2022-07-23T03:32:18;26.36;46.47
70826;SHT31;58446;41.490;22.098;2022-07-23T03:34:44;26.40;46.28
70826;SHT31;58446;41.490;22.098;2022-07-23T03:37:10;26.30;46.60
70826;SHT31;58446;41.490;22.098;2022-07-23T03:39:36;26.36;46.59
70826;SHT31;58446;41.490;22.098;2022-07-23T03:42:01;26.51;46.18
70826;SHT31;58446;41.490;22.098;2022-07-23T03:44:27;26.41;46.41
70826;SHT31;58446;41.490;22.098;2022-07-23T03:46:53;26.44;46.30
70826;SHT31;58446;41.490;22.098;2022-07-23T03:49:19;26.30;46.56
70826;SHT31;58446;41.490;22.098;2022-07-23T03:51:45;26.43;46.30
70826;SHT31;58446;41.490;22.098;2022-07-23T03:54:10;26.52;46.05
70826;SHT31;58446;41.490;22.098;2022-07-23T03:56:36;26.55;46.02
70826;SHT31;58446;41.490;22.098;2022-07-23T03:59:02;26.85;45.42
70826;SHT31;58446;41.490;22.098;2022-07-23T04:01:28;26.52;46.27
70826;SHT31;58446;41.490;22.098;2022-07-23T04:03:54;26.74;45.88
70826;SHT31;58446;41.490;22.098;2022-07-23T04:06:19;26.58;46.56
70826;SHT31;58446;41.490;22.098;2022-07-23T04:08:45;26.78;45.56
70826;SHT31;58446;41.490;22.098;2022-07-23T04:11:11;26.92;45.56
70826;SHT31;58446;41.490;22.098;2022-07-23T04:13:36;26.89;45.31
70826;SHT31;58446;41.490;22.098;2022-07-23T04:16:02;26.96;45.18
70826;SHT31;58446;41.490;22.098;2022-07-23T04:18:29;27.10;45.06
70826;SHT31;58446;41.490;22.098;2022-07-23T04:20:55;26.98;46.14
70826;SHT31;58446;41.490;22.098;2022-07-23T04:23:20;27.16;45.18
70826;SHT31;58446;41.490;22.098;2022-07-23T04:25:46;27.29;45.02
70826;SHT31;58446;41.490;22.098;2022-07-23T04:28:12;27.02;46.15
70826;SHT31;58446;41.490;22.098;2022-07-23T04:30:38;26.85;46.37
70826;SHT31;58446;41.490;22.098;2022-07-23T04:33:04;26.51;48.14
70826;SHT31;58446;41.490;22.098;2022-07-23T04:35:33;26.31;47.89
70826;SHT31;58446;41.490;22.098;2022-07-23T04:37:59;26.28;48.01
70826;SHT31;58446;41.490;22.098;2022-07-23T04:40:26;26.54;47.54
70826;SHT31;58446;41.490;22.098;2022-07-23T04:42:51;26.75;46.89
70826;SHT31;58446;41.490;22.098;2022-07-23T04:45:17;26.87;47.42
70826;SHT31;58446;41.490;22.098;2022-07-23T04:47:43;26.98;47.62
70826;SHT31;58446;41.490;22.098;2022-07-23T04:50:08;27.15;47.43
70826;SHT31;58446;41.490;22.098;2022-07-23T04:52:34;27.25;46.54
70826;SHT31;58446;41.490;22.098;2022-07-23T04:55:00;27.37;46.80
70826;SHT31;58446;41.490;22.098;2022-07-23T04:57:26;27.33;46.85
70826;SHT31;58446;41.490;22.098;2022-07-23T04:59:51;27.57;46.27
70826;SHT31;58446;41.490;22.098;2022-07-23T05:02:17;27.45;46.07
70826;SHT31;58446;41.490;22.098;2022-07-23T05:04:43;27.59;46.70
70826;SHT31;58446;41.490;22.098;2022-07-23T05:07:08;27.90;45.97
70826;SHT31;58446;41.490;22.098;2022-07-23T05:09:34;27.93;44.91
70826;SHT31;58446;41.490;22.098;2022-07-23T05:12:00;28.11;45.63
70826;SHT31;58446;41.490;22.098;2022-07-23T05:14:26;28.44;44.66
70826;SHT31;58446;41.490;22.098;2022-07-23T05:16:53;28.46;44.78
70826;SHT31;58446;41.490;22.098;2022-07-23T05:19:19;28.65;45.25
70826;SHT31;58446;41.490;22.098;2022-07-23T05:21:44;28.68;45.77
70826;SHT31;58446;41.490;22.098;2022-07-23T05:24:10;28.68;44.44
70826;SHT31;58446;41.490;22.098;2022-07-23T05:26:36;28.69;44.85
70826;SHT31;58446;41.490;22.098;2022-07-23T05:29:02;28.84;45.41
70826;SHT31;58446;41.490;22.098;2022-07-23T05:31:28;28.96;44.72
70826;SHT31;58446;41.490;22.098;2022-07-23T05:33:53;28.99;44.28
70826;SHT31;58446;41.490;22.098;2022-07-23T05:36:19;29.21;44.23
70826;SHT31;58446;41.490;22.098;2022-07-23T05:38:45;29.24;44.18
70826;SHT31;58446;41.490;22.098;2022-07-23T05:41:11;29.30;44.81
70826;SHT31;58446;41.490;22.098;2022-07-23T05:43:36;29.65;43.30
70826;SHT31;58446;41.490;22.098;2022-07-23T05:46:02;29.88;42.64
70826;SHT31;58446;41.490;22.098;2022-07-23T05:48:28;29.89;41.81
70826;SHT31;58446;41.490;22.098;2022-07-23T05:50:54;29.96;43.25
70826;SHT31;58446;41.490;22.098;2022-07-23T05:53:20;30.05;43.27
70826;SHT31;58446;41.490;22.098;2022-07-23T05:55:46;30.19;42.08
70826;SHT31;58446;41.490;22.098;2022-07-23T05:58:12;30.32;42.21
70826;SHT31;58446;41.490;22.098;2022-07-23T06:00:37;30.41;42.06
70826;SHT31;58446;41.490;22.098;2022-07-23T06:03:03;30.43;41.14
70826;SHT31;58446;41.490;22.098;2022-07-23T06:05:29;30.47;41.75
70826;SHT31;58446;41.490;22.098;2022-07-23T06:07:54;30.53;41.40
70826;SHT31;58446;41.490;22.098;2022-07-23T06:10:20;30.77;40.30
70826;SHT31;58446;41.490;22.098;2022-07-23T06:12:46;30.88;40.57
70826;SHT31;58446;41.490;22.098;2022-07-23T06:15:12;30.91;41.27
70826;SHT31;58446;41.490;22.098;2022-07-23T06:17:38;31.04;40.98
70826;SHT31;58446;41.490;22.098;2022-07-23T06:20:09;31.08;40.46
70826;SHT31;58446;41.490;22.098;2022-07-23T06:22:36;31.24;40.15
70826;SHT31;58446;41.490;22.098;2022-07-23T06:25:02;31.36;39.86
70826;SHT31;58446;41.490;22.098;2022-07-23T06:27:28;31.56;40.02
70826;SHT31;58446;41.490;22.098;2022-07-23T06:29:53;31.25;39.62
70826;SHT31;58446;41.490;22.098;2022-07-23T06:32:19;31.18;38.16
70826;SHT31;58446;41.490;22.098;2022-07-23T06:34:45;31.27;39.07
70826;SHT31;58446;41.490;22.098;2022-07-23T06:37:11;31.21;38.80
70826;SHT31;58446;41.490;22.098;2022-07-23T06:39:37;31.31;38.78
70826;SHT31;58446;41.490;22.098;2022-07-23T06:42:03;31.41;37.41
70826;SHT31;58446;41.490;22.098;2022-07-23T06:44:28;31.53;38.49
70826;SHT31;58446;41.490;22.098;2022-07-23T06:46:54;31.77;39.40
70826;SHT31;58446;41.490;22.098;2022-07-23T06:49:20;31.93;36.70
70826;SHT31;58446;41.490;22.098;2022-07-23T06:51:46;32.07;38.30
70826;SHT31;58446;41.490;22.098;2022-07-23T06:54:11;32.12;38.10
70826;SHT31;58446;41.490;22.098;2022-07-23T06:56:37;32.17;38.39
70826;SHT31;58446;41.490;22.098;2022-07-23T06:59:03;32.43;38.39
70826;SHT31;58446;41.490;22.098;2022-07-23T07:01:30;32.53;37.62
70826;SHT31;58446;41.490;22.098;2022-07-23T07:03:56;32.50;37.02
70826;SHT31;58446;41.490;22.098;2022-07-23T07:06:21;32.57;37.19
70826;SHT31;58446;41.490;22.098;2022-07-23T07:08:47;32.79;37.46
70826;SHT31;58446;41.490;22.098;2022-07-23T07:11:13;32.96;36.40
70826;SHT31;58446;41.490;22.098;2022-07-23T07:13:38;33.12;36.18
70826;SHT31;58446;41.490;22.098;2022-07-23T07:16:04;33.15;36.76
70826;SHT31;58446;41.490;22.098;2022-07-23T07:18:30;33.22;35.68
70826;SHT31;58446;41.490;22.098;2022-07-23T07:20:59;33.36;36.75
70826;SHT31;58446;41.490;22.098;2022-07-23T07:23:25;33.43;34.71
70826;SHT31;58446;41.490;22.098;2022-07-23T07:25:52;33.46;34.23
70826;SHT31;58446;41.490;22.098;2022-07-23T07:28:17;33.11;34.94
70826;SHT31;58446;41.490;22.098;2022-07-23T07:30:43;32.71;35.84
70826;SHT31;58446;41.490;22.098;2022-07-23T07:33:09;32.58;36.01
70826;SHT31;58446;41.490;22.098;2022-07-23T07:35:35;32.85;37.09
70826;SHT31;58446;41.490;22.098;2022-07-23T07:38:00;32.95;35.19
70826;SHT31;58446;41.490;22.098;2022-07-23T07:40:27;32.79;34.90
70826;SHT31;58446;41.490;22.098;2022-07-23T07:42:54;32.95;35.15
70826;SHT31;58446;41.490;22.098;2022-07-23T07:45:23;33.08;36.40
70826;SHT31;58446;41.490;22.098;2022-07-23T07:47:50;32.96;35.25
70826;SHT31;58446;41.490;22.098;2022-07-23T07:50:16;33.05;36.54
70826;SHT31;58446;41.490;22.098;2022-07-23T07:52:42;33.21;35.26
70826;SHT31;58446;41.490;22.098;2022-07-23T07:55:08;33.46;36.13
70826;SHT31;58446;41.490;22.098;2022-07-23T07:57:35;33.69;35.56
70826;SHT31;58446;41.490;22.098;2022-07-23T08:00:01;33.81;35.83
70826;SHT31;58446;41.490;22.098;2022-07-23T08:02:27;33.94;35.20
70826;SHT31;58446;41.490;22.098;2022-07-23T08:04:53;34.14;34.76
70826;SHT31;58446;41.490;22.098;2022-07-23T08:07:19;34.15;34.76
70826;SHT31;58446;41.490;22.098;2022-07-23T08:09:45;34.28;34.82
70826;SHT31;58446;41.490;22.098;2022-07-23T08:12:11;34.35;34.50
70826;SHT31;58446;41.490;22.098;2022-07-23T08:14:36;34.45;33.68
70826;SHT31;58446;41.490;22.098;2022-07-23T08:17:10;34.49;34.46
70826;SHT31;58446;41.490;22.098;2022-07-23T08:19:35;34.40;32.81
70826;SHT31;58446;41.490;22.098;2022-07-23T08:22:01;34.17;33.83
70826;SHT31;58446;41.490;22.098;2022-07-23T08:24:27;34.42;34.17
70826;SHT31;58446;41.490;22.098;2022-07-23T08:26:52;34.38;32.62
70826;SHT31;58446;41.490;22.098;2022-07-23T08:29:18;34.23;33.72
70826;SHT31;58446;41.490;22.098;2022-07-23T08:31:44;34.33;34.89
70826;SHT31;58446;41.490;22.098;2022-07-23T08:34:10;34.49;33.44
70826;SHT31;58446;41.490;22.098;2022-07-23T08:36:36;34.47;33.22
70826;SHT31;58446;41.490;22.098;2022-07-23T08:39:02;34.59;35.02
70826;SHT31;58446;41.490;22.098;2022-07-23T08:41:29;34.75;35.21
70826;SHT31;58446;41.490;22.098;2022-07-23T08:43:55;34.96;33.65
70826;SHT31;58446;41.490;22.098;2022-07-23T08:46:22;34.69;33.49
70826;SHT31;58446;41.490;22.098;2022-07-23T08:48:49;34.83;35.15
70826;SHT31;58446;41.490;22.098;2022-07-23T08:51:16;35.05;33.83
70826;SHT31;58446;41.490;22.098;2022-07-23T08:53:42;35.12;32.31
70826;SHT31;58446;41.490;22.098;2022-07-23T08:56:08;35.07;34.17
70826;SHT31;58446;41.490;22.098;2022-07-23T08:58:34;35.19;34.59
70826;SHT31;58446;41.490;22.098;2022-07-23T09:01:01;35.19;33.72
70826;SHT31;58446;41.490;22.098;2022-07-23T09:03:31;34.95;33.89
70826;SHT31;58446;41.490;22.098;2022-07-23T09:05:58;34.89;33.67
70826;SHT31;58446;41.490;22.098;2022-07-23T09:08:27;34.99;33.44
70826;SHT31;58446;41.490;22.098;2022-07-23T09:11:01;35.09;32.94
70826;SHT31;58446;41.490;22.098;2022-07-23T09:15:54;35.12;32.59
70826;SHT31;58446;41.490;22.098;2022-07-23T09:18:35;35.22;30.75
70826;SHT31;58446;41.490;22.098;2022-07-23T09:21:07;35.14;30.98
70826;SHT31;58446;41.490;22.098;2022-07-23T09:23:50;35.09;34.19
70826;SHT31;58446;41.490;22.098;2022-07-23T09:26:40;35.00;31.27
70826;SHT31;58446;41.490;22.098;2022-07-23T09:29:19;34.79;31.35
70826;SHT31;58446;41.490;22.098;2022-07-23T09:31:50;34.81;31.36
70826;SHT31;58446;41.490;22.098;2022-07-23T09:34:20;34.64;32.40
70826;SHT31;58446;41.490;22.098;2022-07-23T09:36:47;34.20;33.33
70826;SHT31;58446;41.490;22.098;2022-07-23T09:39:14;34.35;34.00
70826;SHT31;58446;41.490;22.098;2022-07-23T09:41:49;34.51;33.50
70826;SHT31;58446;41.490;22.098;2022-07-23T09:44:19;34.75;33.41
70826;SHT31;58446;41.490;22.098;2022-07-23T09:46:47;35.00;31.97
70826;SHT31;58446;41.490;22.098;2022-07-23T09:49:23;35.25;34.46
70826;SHT31;58446;41.490;22.098;2022-07-23T09:51:57;35.36;32.26
70826;SHT31;58446;41.490;22.098;2022-07-23T09:54:30;35.42;32.09
70826;SHT31;58446;41.490;22.098;2022-07-23T09:57:03;35.64;32.45
70826;SHT31;58446;41.490;22.098;2022-07-23T09:59:35;35.70;31.71
70826;SHT31;58446;41.490;22.098;2022-07-23T10:02:11;35.81;29.55
70826;SHT31;58446;41.490;22.098;2022-07-23T10:04:46;35.54;31.35
70826;SHT31;58446;41.490;22.098;2022-07-23T10:07:14;35.51;31.02
70826;SHT31;58446;41.490;22.098;2022-07-23T10:09:57;35.70;31.11
70826;SHT31;58446;41.490;22.098;2022-07-23T10:12:24;35.87;30.12
70826;SHT31;58446;41.490;22.098;2022-07-23T10:14:57;35.90;30.38
70826;SHT31;58446;41.490;22.098;2022-07-23T10:17:27;35.95;29.80
70826;SHT31;58446;41.490;22.098;2022-07-23T10:19:55;36.08;29.83
70826;SHT31;58446;41.490;22.098;2022-07-23T10:22:24;36.15;30.51
70826;SHT31;58446;41.490;22.098;2022-07-23T10:41:01;36.49;27.81
70826;SHT31;58446;41.490;22.098;2022-07-23T10:43:29;36.55;28.15
70826;SHT31;58446;41.490;22.098;2022-07-23T10:45:55;36.46;28.09
70826;SHT31;58446;41.490;22.098;2022-07-23T10:48:22;36.57;26.89
70826;SHT31;58446;41.490;22.098;2022-07-23T10:51:08;36.73;26.34
70826;SHT31;58446;41.490;22.098;2022-07-23T10:56:15;36.89;26.69
70826;SHT31;58446;41.490;22.098;2022-07-23T10:58:49;36.89;26.51
70826;SHT31;58446;41.490;22.098;2022-07-23T11:01:34;36.82;26.75
70826;SHT31;58446;41.490;22.098;2022-07-23T11:04:00;36.51;28.03
70826;SHT31;58446;41.490;22.098;2022-07-23T11:09:39;36.41;28.33
70826;SHT31;58446;41.490;22.098;2022-07-23T11:15:10;36.97;27.33
70826;SHT31;58446;41.490;22.098;2022-07-23T11:18:00;36.92;27.32
70826;SHT31;58446;41.490;22.098;2022-07-23T11:20:26;37.09;27.27
70826;SHT31;58446;41.490;22.098;2022-07-23T11:22:55;37.14;26.82
70826;SHT31;58446;41.490;22.098;2022-07-23T11:27:48;37.02;27.46
70826;SHT31;58446;41.490;22.098;2022-07-23T11:30:45;36.38;28.54
70826;SHT31;58446;41.490;22.098;2022-07-23T11:35:38;36.15;29.13
70826;SHT31;58446;41.490;22.098;2022-07-23T11:38:15;36.24;28.80
70826;SHT31;58446;41.490;22.098;2022-07-23T11:40:44;36.35;29.34
70826;SHT31;58446;41.490;22.098;2022-07-23T11:43:12;36.57;29.01
70826;SHT31;58446;41.490;22.098;2022-07-23T11:45:41;36.72;28.49
70826;SHT31;58446;41.490;22.098;2022-07-23T11:48:18;36.33;29.66
70826;SHT31;58446;41.490;22.098;2022-07-23T11:50:44;36.39;29.02
70826;SHT31;58446;41.490;22.098;2022-07-23T11:53:10;36.55;29.44
70826;SHT31;58446;41.490;22.098;2022-07-23T11:55:36;36.75;32.60
70826;SHT31;58446;41.490;22.098;2022-07-23T11:58:02;37.00;28.29
70826;SHT31;58446;41.490;22.098;2022-07-23T12:00:32;37.03;27.32
70826;SHT31;58446;41.490;22.098;2022-07-23T12:03:02;37.14;26.59
70826;SHT31;58446;41.490;22.098;2022-07-23T12:05:35;37.33;27.31
70826;SHT31;58446;41.490;22.098;2022-07-23T12:08:04;37.48;26.82
70826;SHT31;58446;41.490;22.098;2022-07-23T12:10:35;37.57;24.91
70826;SHT31;58446;41.490;22.098;2022-07-23T12:13:04;37.58;27.49
70826;SHT31;58446;41.490;22.098;2022-07-23T12:15:37;37.58;28.94
70826;SHT31;58446;41.490;22.098;2022-07-23T12:18:05;37.61;27.25
70826;SHT31;58446;41.490;22.098;2022-07-23T12:20:35;37.65;25.91
70826;SHT31;58446;41.490;22.098;2022-07-23T12:23:05;37.74;25.76
70826;SHT31;58446;41.490;22.098;2022-07-23T12:25:37;37.84;23.92
70826;SHT31;58446;41.490;22.098;2022-07-23T12:28:14;37.95;24.91
70826;SHT31;58446;41.490;22.098;2022-07-23T12:30:51;37.96;25.36
70826;SHT31;58446;41.490;22.098;2022-07-23T12:33:25;38.01;25.98
70826;SHT31;58446;41.490;22.098;2022-07-23T12:35:54;38.01;24.87
70826;SHT31;58446;41.490;22.098;2022-07-23T12:38:22;38.09;25.05
70826;SHT31;58446;41.490;22.098;2022-07-23T12:40:54;37.86;24.25
70826;SHT31;58446;41.490;22.098;2022-07-23T12:43:28;37.77;23.81
70826;SHT31;58446;41.490;22.098;2022-07-23T12:45:56;37.71;22.11
70826;SHT31;58446;41.490;22.098;2022-07-23T12:48:27;37.47;23.11
70826;SHT31;58446;41.490;22.098;2022-07-23T12:50:58;37.65;23.89
70826;SHT31;58446;41.490;22.098;2022-07-23T12:53:31;37.85;23.62
70826;SHT31;58446;41.490;22.098;2022-07-23T12:56:03;38.01;23.09
70826;SHT31;58446;41.490;22.098;2022-07-23T13:01:06;37.96;22.10
70826;SHT31;58446;41.490;22.098;2022-07-23T13:03:38;38.15;21.81
70826;SHT31;58446;41.490;22.098;2022-07-23T13:06:09;38.22;21.00
70826;SHT31;58446;41.490;22.098;2022-07-23T13:08:38;38.26;19.68
70826;SHT31;58446;41.490;22.098;2022-07-23T13:11:05;38.42;16.76
70826;SHT31;58446;41.490;22.098;2022-07-23T13:13:33;37.96;19.17
70826;SHT31;58446;41.490;22.098;2022-07-23T13:16:00;37.86;19.43
70826;SHT31;58446;41.490;22.098;2022-07-23T13:18:27;37.85;19.07
70826;SHT31;58446;41.490;22.098;2022-07-23T13:20:53;37.78;20.64
70826;SHT31;58446;41.490;22.098;2022-07-23T13:23:20;37.58;20.23
70826;SHT31;58446;41.490;22.098;2022-07-23T13:25:46;37.41;20.89
70826;SHT31;58446;41.490;22.098;2022-07-23T13:28:14;37.33;19.67
70826;SHT31;58446;41.490;22.098;2022-07-23T13:30:41;37.53;19.95
70826;SHT31;58446;41.490;22.098;2022-07-23T13:33:07;37.71;17.01
70826;SHT31;58446;41.490;22.098;2022-07-23T13:35:35;37.70;18.08
70826;SHT31;58446;41.490;22.098;2022-07-23T13:38:46;37.82;17.86
70826;SHT31;58446;41.490;22.098;2022-07-23T13:41:13;37.70;18.73
70826;SHT31;58446;41.490;22.098;2022-07-23T13:43:41;37.77;19.11
70826;SHT31;58446;41.490;22.098;2022-07-23T13:46:07;37.85;19.48
70826;SHT31;58446;41.490;22.098;2022-07-23T13:48:33;38.12;18.59
70826;SHT31;58446;41.490;22.098;2022-07-23T13:50:58;38.19;18.96
70826;SHT31;58446;41.490;22.098;2022-07-23T13:53:24;38.26;18.26
70826;SHT31;58446;41.490;22.098;2022-07-23T13:55:52;38.23;17.83
70826;SHT31;58446;41.490;22.098;2022-07-23T13:58:18;38.30;18.26
70826;SHT31;58446;41.490;22.098;2022-07-23T14:00:47;38.36;18.22
70826;SHT31;58446;41.490;22.098;2022-07-23T14:03:16;38.16;19.52
70826;SHT31;58446;41.490;22.098;2022-07-23T14:05:42;38.19;18.73
70826;SHT31;58446;41.490;22.098;2022-07-23T14:08:08;38.20;18.52
70826;SHT31;58446;41.490;22.098;2022-07-23T14:10:35;38.26;18.49
70826;SHT31;58446;41.490;22.098;2022-07-23T14:13:01;38.16;18.26
70826;SHT31;58446;41.490;22.098;2022-07-23T14:15:29;38.16;18.46
70826;SHT31;58446;41.490;22.098;2022-07-23T14:17:57;38.20;19.85
70826;SHT31;58446;41.490;22.098;2022-07-23T14:20:23;38.20;18.01
70826;SHT31;58446;41.490;22.098;2022-07-23T14:22:49;38.25;16.12
70826;SHT31;58446;41.490;22.098;2022-07-23T14:25:16;38.37;16.24
70826;SHT31;58446;41.490;22.098;2022-07-23T14:27:42;38.45;16.54
70826;SHT31;58446;41.490;22.098;2022-07-23T14:30:09;38.55;17.16
70826;SHT31;58446;41.490;22.098;2022-07-23T14:32:35;38.62;17.04
70826;SHT31;58446;41.490;22.098;2022-07-23T14:35:02;38.60;17.37
70826;SHT31;58446;41.490;22.098;2022-07-23T14:37:28;38.62;16.76
70826;SHT31;58446;41.490;22.098;2022-07-23T14:39:54;38.62;17.34
70826;SHT31;58446;41.490;22.098;2022-07-23T14:42:20;38.66;18.13
70826;SHT31;58446;41.490;22.098;2022-07-23T14:44:46;38.46;17.92
70826;SHT31;58446;41.490;22.098;2022-07-23T14:47:11;38.45;17.92
70826;SHT31;58446;41.490;22.098;2022-07-23T14:49:37;38.20;17.83
70826;SHT31;58446;41.490;22.098;2022-07-23T14:52:04;38.23;17.62
70826;SHT31;58446;41.490;22.098;2022-07-23T14:54:30;38.13;18.10
70826;SHT31;58446;41.490;22.098;2022-07-23T14:56:57;38.23;17.27
70826;SHT31;58446;41.490;22.098;2022-07-23T14:59:23;38.30;17.65
70826;SHT31;58446;41.490;22.098;2022-07-23T15:01:49;38.23;18.26
70826;SHT31;58446;41.490;22.098;2022-07-23T15:04:16;38.12;18.52
70826;SHT31;58446;41.490;22.098;2022-07-23T15:06:42;37.98;20.17
70826;SHT31;58446;41.490;22.098;2022-07-23T15:09:08;38.11;19.84
70826;SHT31;58446;41.490;22.098;2022-07-23T15:11:34;37.98;19.20
70826;SHT31;58446;41.490;22.098;2022-07-23T15:14:05;37.91;19.15
70826;SHT31;58446;41.490;22.098;2022-07-23T15:16:31;37.99;19.58
70826;SHT31;58446;41.490;22.098;2022-07-23T15:18:57;38.08;19.26
70826;SHT31;58446;41.490;22.098;2022-07-23T15:21:23;38.18;19.10
70826;SHT31;58446;41.490;22.098;2022-07-23T15:23:49;38.28;19.42
70826;SHT31;58446;41.490;22.098;2022-07-23T15:26:15;38.11;18.96
70826;SHT31;58446;41.490;22.098;2022-07-23T15:28:42;38.05;19.02
70826;SHT31;58446;41.490;22.098;2022-07-23T15:31:08;37.98;19.87
70826;SHT31;58446;41.490;22.098;2022-07-23T15:33:34;37.95;19.77
70826;SHT31;58446;41.490;22.098;2022-07-23T15:36:01;38.01;18.80
70826;SHT31;58446;41.490;22.098;2022-07-23T15:38:26;38.11;18.41
70826;SHT31;58446;41.490;22.098;2022-07-23T15:40:56;38.15;17.74
70826;SHT31;58446;41.490;22.098;2022-07-23T15:43:23;38.19;18.18
70826;SHT31;58446;41.490;22.098;2022-07-23T15:45:49;38.22;17.80
70826;SHT31;58446;41.490;22.098;2022-07-23T15:48:15;38.13;18.10
70826;SHT31;58446;41.490;22.098;2022-07-23T15:50:42;37.86;18.78